sensor_id;sensor_type;location;lat;lon;timestamp;P1;durP1;ratioP1;P2;durP2;ratioP2
11797;SDS011;5956;51.428;6.682;2023-02-28T00:00:38;8.77;;;5.97;;
11797;SDS011;5956;51.428;6.682;2023-02-28T00:03:05;7.27;;;5.43;;
11797;SDS011;5956;51.428;6.682;2023-02-28T00:05:31;5.97;;;4.60;;
11797;SDS011;5956;51.428;6.682;2023-02-28T00:07:58;8.27;;;5.07;;
11797;SDS011;5956;51.428;6.682;2023-02-28T00:10:26;8.63;;;5.23;;
11797;SDS011;5956;51.428;6.682;2023-02-28T00:12:55;7.57;;;5.17;;
11797;SDS011;5956;51.428;6.682;2023-02-28T00:15:23;5.43;;;4.67;;
11797;SDS011;5956;51.428;6.682;2023-02-28T00:17:50;5.17;;;4.67;;
11797;SDS011;5956;51.428;6.682;2023-02-28T00:20:17;6.83;;;4.97;;
11797;SDS011;5956;51.428;6.682;2023-02-28T00:22:44;8.40;;;5.60;;
11797;SDS011;5956;51.428;6.682;2023-02-28T00:25:12;6.37;;;5.30;;
11797;SDS011;5956;51.428;6.682;2023-02-28T00:27:39;6.63;;;5.30;;
11797;SDS011;5956;51.428;6.682;2023-02-28T00:30:08;8.47;;;5.17;;
11797;SDS011;5956;51.428;6.682;2023-02-28T00:32:36;7.27;;;5.50;;
11797;SDS011;5956;51.428;6.682;2023-02-28T00:35:03;7.93;;;5.27;;
11797;SDS011;5956;51.428;6.682;2023-02-28T00:37:30;9.50;;;5.10;;
11797;SDS011;5956;51.428;6.682;2023-02-28T00:39:56;5.33;;;4.80;;
11797;SDS011;5956;51.428;6.682;2023-02-28T00:42:23;6.47;;;5.03;;
11797;SDS011;5956;51.428;6.682;2023-02-28T00:44:50;6.70;;;5.17;;
11797;SDS011;5956;51.428;6.682;2023-02-28T00:47:18;7.00;;;5.43;;
11797;SDS011;5956;51.428;6.682;2023-02-28T00:49:45;6.10;;;5.50;;
11797;SDS011;5956;51.428;6.682;2023-02-28T00:52:11;6.37;;;4.93;;
11797;SDS011;5956;51.428;6.682;2023-02-28T00:54:38;7.80;;;5.63;;
11797;SDS011;5956;51.428;6.682;2023-02-28T00:57:04;4.93;;;4.43;;
11797;SDS011;5956;51.428;6.682;2023-02-28T00:59:31;8.63;;;4.83;;
11797;SDS011;5956;51.428;6.682;2023-02-28T01:01:57;7.63;;;5.03;;
11797;SDS011;5956;51.428;6.682;2023-02-28T01:04:25;5.53;;;5.00;;
11797;SDS011;5956;51.428;6.682;2023-02-28T01:06:52;5.47;;;4.73;;
11797;SDS011;5956;51.428;6.682;2023-02-28T01:09:18;6.23;;;4.60;;
11797;SDS011;5956;51.428;6.682;2023-02-28T01:11:45;7.17;;;5.03;;
11797;SDS011;5956;51.428;6.682;2023-02-28T01:14:12;7.53;;;4.67;;
11797;SDS011;5956;51.428;6.682;2023-02-28T01:16:39;5.60;;;4.40;;
11797;SDS011;5956;51.428;6.682;2023-02-28T01:19:06;6.13;;;4.60;;
11797;SDS011;5956;51.428;6.682;2023-02-28T01:21:33;5.53;;;4.67;;
11797;SDS011;5956;51.428;6.682;2023-02-28T01:24:01;5.83;;;4.60;;
11797;SDS011;5956;51.428;6.682;2023-02-28T01:26:27;10.10;;;4.50;;
11797;SDS011;5956;51.428;6.682;2023-02-28T01:28:54;6.93;;;4.83;;
11797;SDS011;5956;51.428;6.682;2023-02-28T01:31:21;7.30;;;4.60;;
11797;SDS011;5956;51.428;6.682;2023-02-28T01:33:48;7.23;;;4.73;;
11797;SDS011;5956;51.428;6.682;2023-02-28T01:36:16;5.07;;;4.57;;
11797;SDS011;5956;51.428;6.682;2023-02-28T01:38:44;4.17;;;3.87;;
11797;SDS011;5956;51.428;6.682;2023-02-28T01:41:14;7.63;;;4.40;;
11797;SDS011;5956;51.428;6.682;2023-02-28T01:46:22;6.73;;;4.23;;
11797;SDS011;5956;51.428;6.682;2023-02-28T01:48:50;6.83;;;4.33;;
11797;SDS011;5956;51.428;6.682;2023-02-28T01:51:18;4.97;;;4.50;;
11797;SDS011;5956;51.428;6.682;2023-02-28T01:53:49;4.93;;;4.43;;
11797;SDS011;5956;51.428;6.682;2023-02-28T01:56:17;4.50;;;4.10;;
11797;SDS011;5956;51.428;6.682;2023-02-28T01:58:46;4.40;;;4.00;;
11797;SDS011;5956;51.428;6.682;2023-02-28T02:01:12;5.47;;;4.20;;
11797;SDS011;5956;51.428;6.682;2023-02-28T02:03:46;6.13;;;4.73;;
11797;SDS011;5956;51.428;6.682;2023-02-28T02:06:13;5.50;;;4.23;;
11797;SDS011;5956;51.428;6.682;2023-02-28T02:08:39;4.17;;;3.83;;
11797;SDS011;5956;51.428;6.682;2023-02-28T02:11:08;5.27;;;3.47;;
11797;SDS011;5956;51.428;6.682;2023-02-28T02:13:42;5.77;;;3.77;;
11797;SDS011;5956;51.428;6.682;2023-02-28T02:16:18;6.73;;;3.90;;
11797;SDS011;5956;51.428;6.682;2023-02-28T02:18:50;5.33;;;4.33;;
11797;SDS011;5956;51.428;6.682;2023-02-28T02:21:25;4.23;;;3.80;;
11797;SDS011;5956;51.428;6.682;2023-02-28T02:24:11;3.93;;;3.53;;
11797;SDS011;5956;51.428;6.682;2023-02-28T02:26:51;5.60;;;4.10;;
11797;SDS011;5956;51.428;6.682;2023-02-28T02:32:08;3.73;;;3.37;;
11797;SDS011;5956;51.428;6.682;2023-02-28T02:34:43;6.87;;;3.23;;
11797;SDS011;5956;51.428;6.682;2023-02-28T02:37:15;4.63;;;3.63;;
11797;SDS011;5956;51.428;6.682;2023-02-28T02:39:48;6.00;;;3.57;;
11797;SDS011;5956;51.428;6.682;2023-02-28T02:42:20;4.57;;;3.63;;
11797;SDS011;5956;51.428;6.682;2023-02-28T02:44:48;4.40;;;3.50;;
11797;SDS011;5956;51.428;6.682;2023-02-28T02:47:17;3.90;;;3.60;;
11797;SDS011;5956;51.428;6.682;2023-02-28T02:49:48;4.20;;;3.80;;
11797;SDS011;5956;51.428;6.682;2023-02-28T02:52:16;3.87;;;3.40;;
11797;SDS011;5956;51.428;6.682;2023-02-28T02:54:46;3.97;;;3.47;;
11797;SDS011;5956;51.428;6.682;2023-02-28T02:57:15;5.43;;;3.70;;
11797;SDS011;5956;51.428;6.682;2023-02-28T02:59:44;3.77;;;3.43;;
11797;SDS011;5956;51.428;6.682;2023-02-28T03:02:11;5.17;;;3.50;;
11797;SDS011;5956;51.428;6.682;2023-02-28T03:04:40;4.43;;;3.57;;
11797;SDS011;5956;51.428;6.682;2023-02-28T03:07:10;4.77;;;3.80;;
11797;SDS011;5956;51.428;6.682;2023-02-28T03:09:36;4.60;;;3.40;;
11797;SDS011;5956;51.428;6.682;2023-02-28T03:12:04;4.30;;;3.60;;
11797;SDS011;5956;51.428;6.682;2023-02-28T03:14:36;5.23;;;3.57;;
11797;SDS011;5956;51.428;6.682;2023-02-28T03:17:16;6.97;;;3.63;;
11797;SDS011;5956;51.428;6.682;2023-02-28T03:19:47;4.17;;;3.37;;
11797;SDS011;5956;51.428;6.682;2023-02-28T03:22:23;4.07;;;3.67;;
11797;SDS011;5956;51.428;6.682;2023-02-28T03:24:54;5.20;;;3.93;;
11797;SDS011;5956;51.428;6.682;2023-02-28T03:27:24;4.47;;;3.70;;
11797;SDS011;5956;51.428;6.682;2023-02-28T03:29:55;7.73;;;3.77;;
11797;SDS011;5956;51.428;6.682;2023-02-28T03:32:25;4.33;;;3.57;;
11797;SDS011;5956;51.428;6.682;2023-02-28T03:34:55;5.40;;;3.60;;
11797;SDS011;5956;51.428;6.682;2023-02-28T03:37:25;4.30;;;3.53;;
11797;SDS011;5956;51.428;6.682;2023-02-28T03:39:55;4.33;;;3.70;;
11797;SDS011;5956;51.428;6.682;2023-02-28T03:42:23;4.23;;;3.90;;
11797;SDS011;5956;51.428;6.682;2023-02-28T03:44:52;4.57;;;3.73;;
11797;SDS011;5956;51.428;6.682;2023-02-28T03:47:21;4.93;;;3.60;;
11797;SDS011;5956;51.428;6.682;2023-02-28T03:49:49;5.67;;;4.40;;
11797;SDS011;5956;51.428;6.682;2023-02-28T03:52:17;5.37;;;4.40;;
11797;SDS011;5956;51.428;6.682;2023-02-28T03:54:47;5.63;;;3.97;;
11797;SDS011;5956;51.428;6.682;2023-02-28T03:57:25;7.77;;;4.47;;
11797;SDS011;5956;51.428;6.682;2023-02-28T03:59:55;6.07;;;4.20;;
11797;SDS011;5956;51.428;6.682;2023-02-28T04:02:22;4.70;;;4.17;;
11797;SDS011;5956;51.428;6.682;2023-02-28T04:04:49;8.10;;;4.27;;
11797;SDS011;5956;51.428;6.682;2023-02-28T04:07:16;6.90;;;4.10;;
11797;SDS011;5956;51.428;6.682;2023-02-28T04:09:43;5.60;;;4.47;;
11797;SDS011;5956;51.428;6.682;2023-02-28T04:12:11;5.40;;;4.67;;
11797;SDS011;5956;51.428;6.682;2023-02-28T04:14:38;4.63;;;3.80;;
11797;SDS011;5956;51.428;6.682;2023-02-28T04:17:04;5.97;;;3.63;;
11797;SDS011;5956;51.428;6.682;2023-02-28T04:19:31;4.50;;;4.10;;
11797;SDS011;5956;51.428;6.682;2023-02-28T04:21:57;5.50;;;3.97;;
11797;SDS011;5956;51.428;6.682;2023-02-28T04:24:24;4.30;;;3.90;;
11797;SDS011;5956;51.428;6.682;2023-02-28T04:26:52;4.50;;;3.80;;
11797;SDS011;5956;51.428;6.682;2023-02-28T04:29:21;6.03;;;3.83;;
11797;SDS011;5956;51.428;6.682;2023-02-28T04:31:48;7.97;;;3.67;;
11797;SDS011;5956;51.428;6.682;2023-02-28T04:34:15;5.70;;;3.77;;
11797;SDS011;5956;51.428;6.682;2023-02-28T04:36:44;5.13;;;3.90;;
11797;SDS011;5956;51.428;6.682;2023-02-28T04:39:11;5.97;;;3.63;;
11797;SDS011;5956;51.428;6.682;2023-02-28T04:41:37;5.53;;;4.13;;
11797;SDS011;5956;51.428;6.682;2023-02-28T04:44:04;4.13;;;3.50;;
11797;SDS011;5956;51.428;6.682;2023-02-28T04:46:32;5.30;;;3.70;;
11797;SDS011;5956;51.428;6.682;2023-02-28T04:48:58;4.20;;;3.53;;
11797;SDS011;5956;51.428;6.682;2023-02-28T04:51:25;4.53;;;4.00;;
11797;SDS011;5956;51.428;6.682;2023-02-28T04:53:51;4.10;;;3.67;;
11797;SDS011;5956;51.428;6.682;2023-02-28T04:56:18;8.13;;;3.53;;
11797;SDS011;5956;51.428;6.682;2023-02-28T04:58:44;6.23;;;3.47;;
11797;SDS011;5956;51.428;6.682;2023-02-28T05:01:16;5.93;;;3.97;;
11797;SDS011;5956;51.428;6.682;2023-02-28T05:03:45;4.30;;;3.30;;
11797;SDS011;5956;51.428;6.682;2023-02-28T05:06:12;3.73;;;3.40;;
11797;SDS011;5956;51.428;6.682;2023-02-28T05:08:39;4.83;;;3.97;;
11797;SDS011;5956;51.428;6.682;2023-02-28T05:11:06;3.83;;;3.40;;
11797;SDS011;5956;51.428;6.682;2023-02-28T05:13:33;3.83;;;3.47;;
11797;SDS011;5956;51.428;6.682;2023-02-28T05:16:01;4.57;;;3.50;;
11797;SDS011;5956;51.428;6.682;2023-02-28T05:18:27;6.73;;;3.60;;
11797;SDS011;5956;51.428;6.682;2023-02-28T05:20:55;7.93;;;3.60;;
11797;SDS011;5956;51.428;6.682;2023-02-28T05:23:21;9.00;;;3.93;;
11797;SDS011;5956;51.428;6.682;2023-02-28T05:25:48;4.10;;;3.70;;
11797;SDS011;5956;51.428;6.682;2023-02-28T05:28:17;8.23;;;3.97;;
11797;SDS011;5956;51.428;6.682;2023-02-28T05:30:44;4.50;;;4.10;;
11797;SDS011;5956;51.428;6.682;2023-02-28T05:33:11;5.63;;;3.60;;
11797;SDS011;5956;51.428;6.682;2023-02-28T05:35:38;4.00;;;3.60;;
11797;SDS011;5956;51.428;6.682;2023-02-28T05:38:06;5.23;;;3.50;;
11797;SDS011;5956;51.428;6.682;2023-02-28T05:40:33;6.83;;;3.50;;
11797;SDS011;5956;51.428;6.682;2023-02-28T05:42:59;4.30;;;3.93;;
11797;SDS011;5956;51.428;6.682;2023-02-28T05:45:26;6.13;;;3.80;;
11797;SDS011;5956;51.428;6.682;2023-02-28T05:47:53;4.10;;;3.70;;
11797;SDS011;5956;51.428;6.682;2023-02-28T05:50:20;4.03;;;3.40;;
11797;SDS011;5956;51.428;6.682;2023-02-28T05:52:48;3.63;;;3.33;;
11797;SDS011;5956;51.428;6.682;2023-02-28T05:55:16;5.23;;;3.33;;
11797;SDS011;5956;51.428;6.682;2023-02-28T05:57:43;4.07;;;3.33;;
11797;SDS011;5956;51.428;6.682;2023-02-28T06:00:10;4.07;;;3.60;;
11797;SDS011;5956;51.428;6.682;2023-02-28T06:02:38;3.67;;;3.37;;
11797;SDS011;5956;51.428;6.682;2023-02-28T06:05:05;4.10;;;3.47;;
11797;SDS011;5956;51.428;6.682;2023-02-28T06:07:32;3.47;;;3.17;;
11797;SDS011;5956;51.428;6.682;2023-02-28T06:09:58;4.40;;;3.20;;
11797;SDS011;5956;51.428;6.682;2023-02-28T06:12:26;3.60;;;3.30;;
11797;SDS011;5956;51.428;6.682;2023-02-28T06:14:53;7.37;;;3.30;;
11797;SDS011;5956;51.428;6.682;2023-02-28T06:17:19;6.10;;;3.63;;
11797;SDS011;5956;51.428;6.682;2023-02-28T06:19:46;3.97;;;3.00;;
11797;SDS011;5956;51.428;6.682;2023-02-28T06:22:13;8.67;;;4.00;;
11797;SDS011;5956;51.428;6.682;2023-02-28T06:24:39;4.40;;;3.77;;
11797;SDS011;5956;51.428;6.682;2023-02-28T06:27:06;5.87;;;3.40;;
11797;SDS011;5956;51.428;6.682;2023-02-28T06:29:34;6.73;;;3.53;;
11797;SDS011;5956;51.428;6.682;2023-02-28T06:32:01;4.33;;;3.67;;
11797;SDS011;5956;51.428;6.682;2023-02-28T06:34:28;4.60;;;3.57;;
11797;SDS011;5956;51.428;6.682;2023-02-28T06:36:55;6.17;;;4.00;;
11797;SDS011;5956;51.428;6.682;2023-02-28T06:39:21;5.40;;;3.93;;
11797;SDS011;5956;51.428;6.682;2023-02-28T06:41:48;8.13;;;3.97;;
11797;SDS011;5956;51.428;6.682;2023-02-28T06:44:16;5.23;;;3.50;;
11797;SDS011;5956;51.428;6.682;2023-02-28T06:46:45;6.37;;;4.10;;
11797;SDS011;5956;51.428;6.682;2023-02-28T06:49:11;6.73;;;4.33;;
11797;SDS011;5956;51.428;6.682;2023-02-28T06:51:39;7.73;;;4.27;;
11797;SDS011;5956;51.428;6.682;2023-02-28T06:54:06;7.27;;;3.93;;
11797;SDS011;5956;51.428;6.682;2023-02-28T06:56:34;8.57;;;4.33;;
11797;SDS011;5956;51.428;6.682;2023-02-28T06:59:01;8.20;;;3.73;;
11797;SDS011;5956;51.428;6.682;2023-02-28T07:01:28;9.50;;;4.13;;
11797;SDS011;5956;51.428;6.682;2023-02-28T07:03:58;7.57;;;4.40;;
11797;SDS011;5956;51.428;6.682;2023-02-28T07:06:25;6.53;;;4.07;;
11797;SDS011;5956;51.428;6.682;2023-02-28T07:08:52;9.63;;;4.60;;
11797;SDS011;5956;51.428;6.682;2023-02-28T07:11:19;6.20;;;3.97;;
11797;SDS011;5956;51.428;6.682;2023-02-28T07:13:47;5.97;;;3.93;;
11797;SDS011;5956;51.428;6.682;2023-02-28T07:16:13;3.80;;;3.23;;
11797;SDS011;5956;51.428;6.682;2023-02-28T07:18:40;5.57;;;3.90;;
11797;SDS011;5956;51.428;6.682;2023-02-28T07:21:08;6.60;;;4.00;;
11797;SDS011;5956;51.428;6.682;2023-02-28T07:23:35;5.23;;;4.00;;
11797;SDS011;5956;51.428;6.682;2023-02-28T07:26:04;5.47;;;3.80;;
11797;SDS011;5956;51.428;6.682;2023-02-28T07:28:30;4.57;;;3.60;;
11797;SDS011;5956;51.428;6.682;2023-02-28T07:30:57;4.07;;;3.67;;
11797;SDS011;5956;51.428;6.682;2023-02-28T07:33:23;4.30;;;3.47;;
11797;SDS011;5956;51.428;6.682;2023-02-28T07:35:50;5.07;;;3.60;;
11797;SDS011;5956;51.428;6.682;2023-02-28T07:38:18;8.23;;;3.60;;
11797;SDS011;5956;51.428;6.682;2023-02-28T07:40:44;4.00;;;3.53;;
11797;SDS011;5956;51.428;6.682;2023-02-28T07:43:11;7.13;;;3.17;;
11797;SDS011;5956;51.428;6.682;2023-02-28T07:45:37;3.97;;;3.57;;
11797;SDS011;5956;51.428;6.682;2023-02-28T07:48:04;6.47;;;3.40;;
11797;SDS011;5956;51.428;6.682;2023-02-28T07:50:30;4.87;;;4.03;;
11797;SDS011;5956;51.428;6.682;2023-02-28T07:52:57;4.87;;;3.40;;
11797;SDS011;5956;51.428;6.682;2023-02-28T07:55:25;4.40;;;3.53;;
11797;SDS011;5956;51.428;6.682;2023-02-28T07:57:52;4.67;;;3.43;;
11797;SDS011;5956;51.428;6.682;2023-02-28T08:00:18;4.10;;;2.90;;
11797;SDS011;5956;51.428;6.682;2023-02-28T08:02:45;6.90;;;3.23;;
11797;SDS011;5956;51.428;6.682;2023-02-28T08:05:12;5.97;;;3.23;;
11797;SDS011;5956;51.428;6.682;2023-02-28T08:07:38;4.03;;;2.87;;
11797;SDS011;5956;51.428;6.682;2023-02-28T08:10:05;7.67;;;3.13;;
11797;SDS011;5956;51.428;6.682;2023-02-28T08:12:33;3.80;;;2.90;;
11797;SDS011;5956;51.428;6.682;2023-02-28T08:15:00;4.43;;;2.90;;
11797;SDS011;5956;51.428;6.682;2023-02-28T08:17:26;5.67;;;3.17;;
11797;SDS011;5956;51.428;6.682;2023-02-28T08:19:53;3.30;;;2.93;;
11797;SDS011;5956;51.428;6.682;2023-02-28T08:22:20;5.10;;;3.30;;
11797;SDS011;5956;51.428;6.682;2023-02-28T08:24:46;4.90;;;3.30;;
11797;SDS011;5956;51.428;6.682;2023-02-28T08:27:14;3.10;;;2.90;;
11797;SDS011;5956;51.428;6.682;2023-02-28T08:29:42;4.60;;;3.00;;
11797;SDS011;5956;51.428;6.682;2023-02-28T08:32:08;3.40;;;3.10;;
11797;SDS011;5956;51.428;6.682;2023-02-28T08:34:35;3.50;;;3.27;;
11797;SDS011;5956;51.428;6.682;2023-02-28T08:37:01;4.57;;;3.30;;
11797;SDS011;5956;51.428;6.682;2023-02-28T08:39:28;4.77;;;3.47;;
11797;SDS011;5956;51.428;6.682;2023-02-28T08:41:54;5.67;;;3.43;;
11797;SDS011;5956;51.428;6.682;2023-02-28T08:44:21;4.73;;;3.60;;
11797;SDS011;5956;51.428;6.682;2023-02-28T08:46:49;9.43;;;3.67;;
11797;SDS011;5956;51.428;6.682;2023-02-28T08:49:15;4.37;;;3.63;;
11797;SDS011;5956;51.428;6.682;2023-02-28T08:51:42;10.83;;;3.93;;
11797;SDS011;5956;51.428;6.682;2023-02-28T08:54:08;4.40;;;3.27;;
11797;SDS011;5956;51.428;6.682;2023-02-28T08:56:37;3.60;;;3.10;;
11797;SDS011;5956;51.428;6.682;2023-02-28T08:59:04;7.80;;;3.70;;
11797;SDS011;5956;51.428;6.682;2023-02-28T09:01:31;5.17;;;3.23;;
11797;SDS011;5956;51.428;6.682;2023-02-28T09:03:59;3.77;;;3.40;;
11797;SDS011;5956;51.428;6.682;2023-02-28T09:06:27;3.40;;;3.10;;
11797;SDS011;5956;51.428;6.682;2023-02-28T09:08:55;3.73;;;2.67;;
11797;SDS011;5956;51.428;6.682;2023-02-28T09:11:23;3.67;;;3.10;;
11797;SDS011;5956;51.428;6.682;2023-02-28T09:13:50;2.97;;;2.67;;
11797;SDS011;5956;51.428;6.682;2023-02-28T09:16:16;4.13;;;2.80;;
11797;SDS011;5956;51.428;6.682;2023-02-28T09:18:44;5.07;;;2.63;;
11797;SDS011;5956;51.428;6.682;2023-02-28T09:21:13;2.90;;;2.70;;
11797;SDS011;5956;51.428;6.682;2023-02-28T09:23:40;2.50;;;2.30;;
11797;SDS011;5956;51.428;6.682;2023-02-28T09:26:07;3.10;;;2.90;;
11797;SDS011;5956;51.428;6.682;2023-02-28T09:28:34;3.03;;;2.73;;
11797;SDS011;5956;51.428;6.682;2023-02-28T09:31:00;2.70;;;2.50;;
11797;SDS011;5956;51.428;6.682;2023-02-28T09:33:29;3.73;;;2.77;;
11797;SDS011;5956;51.428;6.682;2023-02-28T09:35:57;2.97;;;2.60;;
11797;SDS011;5956;51.428;6.682;2023-02-28T09:38:26;3.57;;;2.20;;
11797;SDS011;5956;51.428;6.682;2023-02-28T09:40:53;2.30;;;2.07;;
11797;SDS011;5956;51.428;6.682;2023-02-28T09:43:21;2.27;;;2.07;;
11797;SDS011;5956;51.428;6.682;2023-02-28T09:45:51;2.93;;;2.60;;
11797;SDS011;5956;51.428;6.682;2023-02-28T09:48:24;2.80;;;2.60;;
11797;SDS011;5956;51.428;6.682;2023-02-28T09:50:53;2.93;;;2.10;;
11797;SDS011;5956;51.428;6.682;2023-02-28T09:53:22;2.33;;;2.13;;
11797;SDS011;5956;51.428;6.682;2023-02-28T09:55:55;2.93;;;2.47;;
11797;SDS011;5956;51.428;6.682;2023-02-28T09:58:26;3.80;;;2.40;;
11797;SDS011;5956;51.428;6.682;2023-02-28T10:00:56;5.43;;;2.40;;
11797;SDS011;5956;51.428;6.682;2023-02-28T10:03:25;3.13;;;2.43;;
11797;SDS011;5956;51.428;6.682;2023-02-28T10:05:54;2.90;;;2.27;;
11797;SDS011;5956;51.428;6.682;2023-02-28T10:08:23;4.90;;;2.33;;
11797;SDS011;5956;51.428;6.682;2023-02-28T10:10:53;2.10;;;1.90;;
11797;SDS011;5956;51.428;6.682;2023-02-28T10:13:24;2.80;;;2.00;;
11797;SDS011;5956;51.428;6.682;2023-02-28T10:15:53;2.30;;;2.10;;
11797;SDS011;5956;51.428;6.682;2023-02-28T10:18:24;2.47;;;1.70;;
11797;SDS011;5956;51.428;6.682;2023-02-28T10:20:51;2.47;;;2.10;;
11797;SDS011;5956;51.428;6.682;2023-02-28T10:23:21;4.13;;;2.43;;
11797;SDS011;5956;51.428;6.682;2023-02-28T10:25:50;2.70;;;2.50;;
11797;SDS011;5956;51.428;6.682;2023-02-28T10:28:19;2.53;;;2.30;;
11797;SDS011;5956;51.428;6.682;2023-02-28T10:30:48;2.23;;;2.13;;
11797;SDS011;5956;51.428;6.682;2023-02-28T10:33:17;2.83;;;2.63;;
11797;SDS011;5956;51.428;6.682;2023-02-28T10:35:45;2.67;;;2.30;;
11797;SDS011;5956;51.428;6.682;2023-02-28T10:38:14;3.83;;;2.50;;
11797;SDS011;5956;51.428;6.682;2023-02-28T10:40:42;4.13;;;2.30;;
11797;SDS011;5956;51.428;6.682;2023-02-28T10:43:17;2.83;;;2.20;;
11797;SDS011;5956;51.428;6.682;2023-02-28T10:45:53;2.83;;;2.37;;
11797;SDS011;5956;51.428;6.682;2023-02-28T10:48:26;2.27;;;2.03;;
11797;SDS011;5956;51.428;6.682;2023-02-28T10:50:53;3.00;;;2.00;;
11797;SDS011;5956;51.428;6.682;2023-02-28T10:53:27;2.00;;;1.90;;
11797;SDS011;5956;51.428;6.682;2023-02-28T10:55:56;2.53;;;1.97;;
11797;SDS011;5956;51.428;6.682;2023-02-28T10:58:24;2.57;;;2.10;;
11797;SDS011;5956;51.428;6.682;2023-02-28T11:00:53;3.23;;;2.30;;
11797;SDS011;5956;51.428;6.682;2023-02-28T11:03:23;3.80;;;3.50;;
11797;SDS011;5956;51.428;6.682;2023-02-28T11:05:50;2.20;;;2.00;;
11797;SDS011;5956;51.428;6.682;2023-02-28T11:08:17;2.17;;;1.80;;
11797;SDS011;5956;51.428;6.682;2023-02-28T11:10:44;3.50;;;2.20;;
11797;SDS011;5956;51.428;6.682;2023-02-28T11:13:15;2.80;;;2.43;;
11797;SDS011;5956;51.428;6.682;2023-02-28T11:15:46;2.97;;;2.10;;
11797;SDS011;5956;51.428;6.682;2023-02-28T11:18:21;2.40;;;2.20;;
11797;SDS011;5956;51.428;6.682;2023-02-28T11:20:49;2.60;;;1.83;;
11797;SDS011;5956;51.428;6.682;2023-02-28T11:23:17;2.53;;;1.97;;
11797;SDS011;5956;51.428;6.682;2023-02-28T11:25:47;2.27;;;1.90;;
11797;SDS011;5956;51.428;6.682;2023-02-28T11:28:23;3.70;;;2.10;;
11797;SDS011;5956;51.428;6.682;2023-02-28T11:30:59;2.87;;;2.10;;
11797;SDS011;5956;51.428;6.682;2023-02-28T11:33:28;2.07;;;1.93;;
11797;SDS011;5956;51.428;6.682;2023-02-28T11:35:57;2.07;;;1.53;;
11797;SDS011;5956;51.428;6.682;2023-02-28T11:38:25;1.87;;;1.77;;
11797;SDS011;5956;51.428;6.682;2023-02-28T11:40:55;2.13;;;1.93;;
11797;SDS011;5956;51.428;6.682;2023-02-28T11:43:30;2.00;;;1.30;;
11797;SDS011;5956;51.428;6.682;2023-02-28T11:46:05;1.70;;;1.60;;
11797;SDS011;5956;51.428;6.682;2023-02-28T11:48:36;2.57;;;1.97;;
11797;SDS011;5956;51.428;6.682;2023-02-28T11:51:11;1.50;;;1.33;;
11797;SDS011;5956;51.428;6.682;2023-02-28T11:53:48;2.40;;;1.30;;
11797;SDS011;5956;51.428;6.682;2023-02-28T11:56:18;2.63;;;2.00;;
11797;SDS011;5956;51.428;6.682;2023-02-28T11:58:50;2.13;;;1.70;;
11797;SDS011;5956;51.428;6.682;2023-02-28T12:01:24;1.87;;;1.77;;
11797;SDS011;5956;51.428;6.682;2023-02-28T12:03:58;2.47;;;2.00;;
11797;SDS011;5956;51.428;6.682;2023-02-28T12:06:28;1.70;;;1.60;;
11797;SDS011;5956;51.428;6.682;2023-02-28T12:09:01;1.87;;;1.70;;
11797;SDS011;5956;51.428;6.682;2023-02-28T12:11:33;1.83;;;1.73;;
11797;SDS011;5956;51.428;6.682;2023-02-28T12:14:09;3.07;;;2.10;;
11797;SDS011;5956;51.428;6.682;2023-02-28T12:16:45;2.10;;;1.90;;
11797;SDS011;5956;51.428;6.682;2023-02-28T12:19:17;2.07;;;1.97;;
11797;SDS011;5956;51.428;6.682;2023-02-28T12:24:35;2.30;;;1.90;;
11797;SDS011;5956;51.428;6.682;2023-02-28T12:27:05;1.93;;;1.83;;
11797;SDS011;5956;51.428;6.682;2023-02-28T12:29:34;1.63;;;1.53;;
11797;SDS011;5956;51.428;6.682;2023-02-28T12:32:09;2.10;;;2.00;;
11797;SDS011;5956;51.428;6.682;2023-02-28T12:34:41;2.00;;;1.77;;
11797;SDS011;5956;51.428;6.682;2023-02-28T12:37:10;1.80;;;1.70;;
11797;SDS011;5956;51.428;6.682;2023-02-28T12:39:40;1.90;;;1.70;;
11797;SDS011;5956;51.428;6.682;2023-02-28T12:42:10;2.20;;;2.07;;
11797;SDS011;5956;51.428;6.682;2023-02-28T12:44:40;1.80;;;1.70;;
11797;SDS011;5956;51.428;6.682;2023-02-28T12:47:11;2.53;;;2.00;;
11797;SDS011;5956;51.428;6.682;2023-02-28T12:49:41;2.20;;;1.73;;
11797;SDS011;5956;51.428;6.682;2023-02-28T12:52:08;2.10;;;2.00;;
11797;SDS011;5956;51.428;6.682;2023-02-28T12:54:40;2.53;;;2.33;;
11797;SDS011;5956;51.428;6.682;2023-02-28T12:57:11;2.43;;;2.23;;
11797;SDS011;5956;51.428;6.682;2023-02-28T12:59:42;2.00;;;1.90;;
11797;SDS011;5956;51.428;6.682;2023-02-28T13:02:22;2.63;;;2.03;;
11797;SDS011;5956;51.428;6.682;2023-02-28T13:05:00;2.67;;;1.83;;
11797;SDS011;5956;51.428;6.682;2023-02-28T13:07:31;2.10;;;2.00;;
11797;SDS011;5956;51.428;6.682;2023-02-28T13:10:02;1.90;;;1.80;;
11797;SDS011;5956;51.428;6.682;2023-02-28T13:12:31;1.97;;;1.83;;
11797;SDS011;5956;51.428;6.682;2023-02-28T13:15:02;2.20;;;2.10;;
11797;SDS011;5956;51.428;6.682;2023-02-28T13:17:30;3.20;;;1.90;;
11797;SDS011;5956;51.428;6.682;2023-02-28T13:19:58;4.20;;;2.40;;
11797;SDS011;5956;51.428;6.682;2023-02-28T13:27:48;2.00;;;1.90;;
11797;SDS011;5956;51.428;6.682;2023-02-28T13:38:01;2.30;;;2.10;;
11797;SDS011;5956;51.428;6.682;2023-02-28T13:40:35;3.30;;;2.50;;
11797;SDS011;5956;51.428;6.682;2023-02-28T13:43:05;2.70;;;2.50;;
11797;SDS011;5956;51.428;6.682;2023-02-28T13:45:33;2.83;;;2.47;;
11797;SDS011;5956;51.428;6.682;2023-02-28T13:48:03;2.65;;;2.40;;
11797;SDS011;5956;51.428;6.682;2023-02-28T13:50:31;3.65;;;2.17;;
11797;SDS011;5956;51.428;6.682;2023-02-28T13:53:05;2.70;;;2.50;;
11797;SDS011;5956;51.428;6.682;2023-02-28T13:55:42;2.72;;;2.53;;
11797;SDS011;5956;51.428;6.682;2023-02-28T13:58:17;4.00;;;2.33;;
11797;SDS011;5956;51.428;6.682;2023-02-28T14:00:55;4.55;;;2.67;;
11797;SDS011;5956;51.428;6.682;2023-02-28T14:03:29;3.03;;;2.83;;
11797;SDS011;5956;51.428;6.682;2023-02-28T14:08:47;2.45;;;2.25;;
11797;SDS011;5956;51.428;6.682;2023-02-28T14:11:23;2.53;;;2.33;;
11797;SDS011;5956;51.428;6.682;2023-02-28T14:13:51;2.38;;;2.28;;
11797;SDS011;5956;51.428;6.682;2023-02-28T14:16:19;3.13;;;2.22;;
11797;SDS011;5956;51.428;6.682;2023-02-28T14:18:48;3.50;;;2.53;;
11797;SDS011;5956;51.428;6.682;2023-02-28T14:21:19;2.58;;;2.38;;
11797;SDS011;5956;51.428;6.682;2023-02-28T14:31:28;3.10;;;2.77;;
11797;SDS011;5956;51.428;6.682;2023-02-28T14:34:03;2.80;;;2.40;;
11797;SDS011;5956;51.428;6.682;2023-02-28T14:36:32;3.20;;;2.77;;
11797;SDS011;5956;51.428;6.682;2023-02-28T14:38:59;2.73;;;2.53;;
11797;SDS011;5956;51.428;6.682;2023-02-28T14:41:29;2.77;;;2.57;;
11797;SDS011;5956;51.428;6.682;2023-02-28T14:43:57;3.70;;;3.27;;
11797;SDS011;5956;51.428;6.682;2023-02-28T14:46:26;2.50;;;2.40;;
11797;SDS011;5956;51.428;6.682;2023-02-28T14:48:53;2.60;;;2.30;;
11797;SDS011;5956;51.428;6.682;2023-02-28T14:51:21;2.50;;;2.30;;
11797;SDS011;5956;51.428;6.682;2023-02-28T14:53:49;3.57;;;2.60;;
11797;SDS011;5956;51.428;6.682;2023-02-28T14:56:19;2.77;;;2.43;;
11797;SDS011;5956;51.428;6.682;2023-02-28T14:58:50;3.30;;;2.50;;
11797;SDS011;5956;51.428;6.682;2023-02-28T15:01:18;2.30;;;2.10;;
11797;SDS011;5956;51.428;6.682;2023-02-28T15:03:47;3.00;;;2.70;;
11797;SDS011;5956;51.428;6.682;2023-02-28T15:06:14;3.43;;;2.90;;
11797;SDS011;5956;51.428;6.682;2023-02-28T15:08:43;2.83;;;2.60;;
11797;SDS011;5956;51.428;6.682;2023-02-28T15:11:12;6.70;;;2.90;;
11797;SDS011;5956;51.428;6.682;2023-02-28T15:13:40;3.03;;;2.20;;
11797;SDS011;5956;51.428;6.682;2023-02-28T15:16:25;2.70;;;1.73;;
11797;SDS011;5956;51.428;6.682;2023-02-28T15:18:58;3.57;;;2.50;;
11797;SDS011;5956;51.428;6.682;2023-02-28T15:21:26;3.27;;;2.90;;
11797;SDS011;5956;51.428;6.682;2023-02-28T15:23:54;3.40;;;3.10;;
11797;SDS011;5956;51.428;6.682;2023-02-28T15:26:23;4.20;;;2.50;;
11797;SDS011;5956;51.428;6.682;2023-02-28T15:28:50;4.73;;;2.57;;
11797;SDS011;5956;51.428;6.682;2023-02-28T15:31:20;3.80;;;2.63;;
11797;SDS011;5956;51.428;6.682;2023-02-28T15:33:52;2.90;;;2.57;;
11797;SDS011;5956;51.428;6.682;2023-02-28T15:36:20;3.67;;;2.83;;
11797;SDS011;5956;51.428;6.682;2023-02-28T15:38:50;3.13;;;2.83;;
11797;SDS011;5956;51.428;6.682;2023-02-28T15:41:21;2.67;;;2.57;;